Time;durP1;ratioP1;P1;durP2;ratioP2;P2;SDS_P1;SDS_P2;PMS_P1;PMS_P2;Temp;Humidity;BMP_temperature;BMP_pressure;BME280_temperature;BME280_humidity;BME280_pressure;Samples;Min_cycle;Max_cycle;Signal;HPM_P1;HPM_P2
2021/01/15 00:00:20;;;;;;;14.23;10.87;;;2.10;99.90;;;-0.25;100.00;100704.09;5024124;27;102096;-62
2021/01/15 00:02:46;;;;;;;12.93;10.47;;;2.10;99.90;;;-0.29;100.00;100703.41;5024679;27;100368;-62
2021/01/15 00:05:13;;;;;;;15.43;11.53;;;2.20;99.90;;;-0.32;100.00;100702.69;5026042;27;100141;-62
2021/01/15 00:07:40;;;;;;;14.40;11.20;;;2.20;99.90;;;-0.34;100.00;100712.44;5025817;27;100361;-62
2021/01/15 00:10:08;;;;;;;13.60;10.60;;;2.20;99.90;;;-0.28;100.00;100706.88;5024113;27;101636;-63
2021/01/15 00:12:37;;;;;;;16.63;11.73;;;2.10;99.90;;;-0.27;100.00;100709.44;5025003;27;100459;-62
2021/01/15 00:15:06;;;;;;;17.33;11.40;;;2.10;99.90;;;-0.34;100.00;100705.41;5024564;27;100102;-62
2021/01/15 00:17:34;;;;;;;15.63;11.43;;;2.20;99.90;;;-0.38;100.00;100709.13;5026022;27;99993;-62
2021/01/15 00:20:00;;;;;;;15.00;10.40;;;3.20;99.90;;;-0.36;100.00;100710.72;5024667;27;101476;-62
2021/01/15 00:22:27;;;;;;;16.03;10.97;;;2.10;99.90;;;-0.34;100.00;100710.66;5006144;27;101849;-61
2021/01/15 00:24:53;;;;;;;15.93;11.47;;;2.10;99.90;;;-0.39;100.00;100715.31;5024404;27;100303;-62
2021/01/15 00:27:20;;;;;;;16.53;10.77;;;2.10;99.90;;;-0.33;100.00;100719.41;5025365;27;100183;-62
2021/01/15 00:29:47;;;;;;;14.90;11.27;;;2.00;99.90;;;-0.32;100.00;100723.72;5024798;27;101418;-62
2021/01/15 00:32:13;;;;;;;14.77;10.97;;;2.10;99.90;;;-0.41;100.00;100715.41;5025434;27;100962;-62
2021/01/15 00:34:40;;;;;;;14.53;11.53;;;2.30;99.90;;;-0.41;100.00;100731.16;5025697;27;100042;-62
2021/01/15 00:37:06;;;;;;;17.53;12.60;;;2.10;99.90;;;-0.39;100.00;100718.81;5025476;27;100361;-63
2021/01/15 00:39:33;;;;;;;14.70;11.00;;;2.10;99.90;;;-0.39;100.00;100733.72;5024435;27;100627;-62
2021/01/15 00:41:59;;;;;;;14.17;11.17;;;2.20;99.90;;;-0.41;100.00;100725.06;5024793;27;101352;-63
2021/01/15 00:44:25;;;;;;;16.23;10.77;;;2.10;99.90;;;-0.26;100.00;100728.69;5006430;27;100233;-62
2021/01/15 00:46:55;;;;;;;17.43;11.73;;;2.10;99.90;;;-0.35;100.00;100724.72;5025262;27;100174;-62
2021/01/15 00:49:22;;;;;;;14.90;11.33;;;2.10;99.90;;;-0.41;100.00;100733.81;5023408;27;100720;-63
2021/01/15 00:51:54;;;;;;;15.40;10.13;;;2.10;99.90;;;-0.34;100.00;100731.69;5005636;27;102904;-62
2021/01/15 00:54:25;;;;;;;14.90;10.53;;;2.00;99.90;;;-0.33;100.00;100738.66;5024950;27;100096;-63
2021/01/15 00:56:58;;;;;;;15.63;11.37;;;2.20;99.90;;;-0.40;100.00;100739.91;5024519;27;100451;-62
2021/01/15 00:59:26;;;;;;;14.87;11.17;;;2.00;99.90;;;-0.40;100.00;100746.03;5005399;27;102504;-61
2021/01/15 01:02:08;;;;;;;16.77;11.43;;;2.10;99.90;;;-0.41;100.00;100743.47;5005385;27;103251;-62
2021/01/15 01:04:36;;;;;;;16.23;11.10;;;2.00;99.90;;;-0.33;100.00;100733.41;5005864;27;100502;-62
2021/01/15 01:07:03;;;;;;;14.40;10.63;;;2.10;99.90;;;-0.37;100.00;100748.47;5025386;27;100357;-63
2021/01/15 01:09:29;;;;;;;14.60;11.87;;;2.10;99.90;;;-0.43;100.00;100750.56;5024832;27;100579;-63
2021/01/15 01:11:58;;;;;;;16.43;12.00;;;2.00;99.90;;;-0.40;100.00;100750.44;5024060;27;101037;-61
2021/01/15 01:14:24;;;;;;;17.83;11.03;;;2.00;99.90;;;-0.42;100.00;100753.13;5024932;27;100245;-62
2021/01/15 01:16:51;;;;;;;16.47;11.30;;;2.10;99.90;;;-0.37;100.00;100750.25;5024460;27;100434;-63
2021/01/15 01:19:18;;;;;;;17.50;12.40;;;2.00;99.90;;;-0.41;100.00;100749.56;5025250;27;101080;-63
2021/01/15 01:21:44;;;;;;;14.60;11.13;;;2.20;99.90;;;-0.39;100.00;100753.00;5024304;27;100766;-62
2021/01/15 01:24:11;;;;;;;15.67;11.93;;;1.90;99.90;;;-0.45;100.00;100753.28;5024477;27;100688;-62
2021/01/15 01:26:37;;;;;;;15.90;11.03;;;1.90;99.90;;;-0.41;100.00;100751.34;5024359;27;100194;-63
2021/01/15 01:29:04;;;;;;;15.00;11.77;;;2.10;99.90;;;-0.42;100.00;100755.75;5023890;27;101339;-62
2021/01/15 01:31:30;;;;;;;13.97;11.23;;;2.00;99.90;;;-0.46;100.00;100753.34;5024899;27;100865;-63
2021/01/15 01:33:56;;;;;;;16.43;11.70;;;2.00;99.90;;;-0.45;100.00;100750.66;5024007;27;100017;-63
2021/01/15 01:36:24;;;;;;;16.80;11.80;;;1.90;99.90;;;-0.44;100.00;100751.50;5024108;27;100123;-63
2021/01/15 01:38:50;;;;;;;17.17;12.03;;;1.90;99.90;;;-0.49;100.00;100751.72;5023316;27;100909;-64
2021/01/15 01:41:16;;;;;;;14.67;10.87;;;1.80;99.90;;;-0.52;100.00;100751.03;5003500;27;100938;-63
2021/01/15 01:43:43;;;;;;;14.03;11.00;;;2.00;99.90;;;-0.50;100.00;100749.19;5007097;27;100235;-63
2021/01/15 01:46:10;;;;;;;16.53;12.73;;;2.00;99.90;;;-0.50;100.00;100749.19;5007772;27;100095;-63
2021/01/15 01:48:38;;;;;;;18.10;13.13;;;2.00;99.90;;;-0.50;100.00;100743.94;5006929;27;101235;-63
2021/01/15 01:51:06;;;;;;;20.43;12.83;;;2.40;99.90;;;-0.53;100.00;100744.94;5006571;27;101207;-63
2021/01/15 01:53:37;;;;;;;17.87;12.77;;;1.80;99.90;;;-0.51;100.00;100750.13;5007363;27;100297;-65
2021/01/15 01:56:06;;;;;;;18.50;12.30;;;1.90;99.90;;;-0.49;100.00;100746.47;5008072;27;100429;-63
2021/01/15 01:58:33;;;;;;;16.07;12.90;;;1.80;99.90;;;-0.54;100.00;100745.88;5006882;27;101591;-63
2021/01/15 02:01:06;;;;;;;18.00;11.70;;;0.70;99.90;;;-0.54;100.00;100743.22;5004306;27;100733;-63
2021/01/15 02:03:33;;;;;;;15.73;12.53;;;1.90;99.90;;;-0.54;100.00;100742.38;4987559;28;100366;-63
2021/01/15 02:06:00;;;;;;;16.53;12.03;;;1.80;99.90;;;-0.56;100.00;100742.44;4986953;27;100066;-63
2021/01/15 02:08:28;;;;;;;16.97;12.23;;;1.80;99.90;;;-0.54;100.00;100739.75;4986927;28;101341;-63
2021/01/15 02:11:09;;;;;;;16.70;12.47;;;2.00;99.90;;;-0.58;100.00;100738.19;4986183;28;101365;-63
2021/01/15 02:13:44;;;;;;;22.27;12.60;;;1.80;99.90;;;-0.54;100.00;100740.59;5003157;27;100062;-63
2021/01/15 02:16:18;;;;;;;278.97;40.53;;;1.80;99.90;;;-0.44;100.00;100740.97;5006729;27;100018;-63
2021/01/15 02:18:51;;;;;;;18.03;13.97;;;1.80;99.90;;;-0.55;100.00;100736.28;5006714;27;100470;-64
2021/01/15 02:21:53;;;;;;;16.23;12.37;;;1.90;99.90;;;-0.49;100.00;100740.34;5007467;27;100031;-63
2021/01/15 02:25:11;;;;;;;18.47;12.57;;;1.90;99.90;;;-0.56;100.00;100731.94;5007614;27;100125;-63
2021/01/15 02:28:13;;;;;;;17.53;12.17;;;1.80;99.90;;;-0.58;100.00;100735.56;5005441;27;100304;-62
2021/01/15 02:31:03;;;;;;;17.40;12.23;;;1.90;99.90;;;-0.49;100.00;100737.72;5003993;27;101173;-63
2021/01/15 02:33:41;;;;;;;17.93;11.40;;;1.80;99.90;;;-0.50;100.00;100736.06;5006254;27;100663;-63
2021/01/15 02:36:16;;;;;;;18.33;11.77;;;1.80;99.90;;;-0.45;100.00;100740.13;5004853;27;100417;-64
2021/01/15 02:38:53;;;;;;;14.20;11.10;;;1.90;99.90;;;-0.40;100.00;100746.03;5006734;27;99958;-63
2021/01/15 02:41:23;;;;;;;17.13;11.83;;;1.90;99.90;;;-0.42;100.00;100734.72;5006308;27;100916;-62
2021/01/15 02:43:56;;;;;;;15.63;11.00;;;1.90;99.90;;;-0.41;100.00;100743.47;5005920;27;100850;-63
2021/01/15 02:46:33;;;;;;;16.20;11.20;;;1.80;99.90;;;-0.38;100.00;100745.94;5006817;27;100158;-62
2021/01/15 02:49:02;;;;;;;15.27;11.40;;;1.80;99.90;;;-0.39;100.00;100742.47;5007207;27;100263;-63
2021/01/15 02:51:33;;;;;;;13.57;10.13;;;2.10;99.90;;;-0.38;100.00;100733.66;5006533;27;100761;-62
2021/01/15 02:53:59;;;;;;;14.10;11.13;;;2.00;99.90;;;-0.36;100.00;100751.94;5004633;27;101106;-61
2021/01/15 02:56:26;;;;;;;15.67;10.97;;;2.10;99.90;;;-0.34;100.00;100751.88;5005640;27;100331;-61
2021/01/15 02:58:52;;;;;;;14.87;10.67;;;2.00;99.90;;;-0.40;100.00;100745.16;4991412;27;100205;-61
2021/01/15 03:01:21;;;;;;;13.50;10.50;;;1.90;99.90;;;-0.37;100.00;100747.63;4985674;28;100784;-62
2021/01/15 03:03:50;;;;;;;14.10;10.53;;;2.10;99.90;;;-0.41;100.00;100746.94;4986151;28;100807;-61
2021/01/15 03:06:30;;;;;;;13.30;9.83;;;2.00;99.90;;;-0.39;100.00;100741.63;4985785;27;100354;-63
2021/01/15 03:09:01;;;;;;;16.60;10.77;;;2.20;99.90;;;-0.41;100.00;100746.09;4986264;28;100400;-62
2021/01/15 03:11:30;;;;;;;14.37;10.10;;;2.00;99.90;;;-0.37;100.00;100742.38;4985476;28;100887;-61
2021/01/15 03:13:59;;;;;;;15.43;11.00;;;2.00;99.90;;;-0.38;100.00;100738.91;4985996;28;101032;-61
2021/01/15 03:16:28;;;;;;;14.23;10.33;;;2.00;99.90;;;-0.44;100.00;100743.63;4985589;28;100150;-62
2021/01/15 03:18:59;;;;;;;15.27;10.43;;;2.10;99.90;;;-0.41;100.00;100744.31;4985642;28;100286;-62
2021/01/15 03:21:28;;;;;;;13.03;10.03;;;0.90;99.90;;;-0.38;100.00;100744.16;4994260;27;100879;-62
2021/01/15 03:23:55;;;;;;;12.67;10.30;;;1.90;99.90;;;-0.38;100.00;100745.94;5003292;27;101616;-62
2021/01/15 03:26:22;;;;;;;18.47;11.47;;;2.10;99.90;;;-0.43;100.00;100754.06;5006101;27;100443;-62
2021/01/15 03:28:50;;;;;;;15.83;10.57;;;1.90;99.90;;;-0.45;100.00;100748.03;4992061;27;100162;-62
2021/01/15 03:31:16;;;;;;;14.87;10.63;;;2.00;99.90;;;-0.37;100.00;100752.88;4985321;28;100944;-62
2021/01/15 03:33:42;;;;;;;13.23;9.73;;;1.90;99.90;;;-0.37;100.00;100759.00;4985729;28;101298;-62
2021/01/15 03:36:09;;;;;;;12.77;10.27;;;1.90;99.90;;;-0.47;100.00;100757.75;4986080;27;100406;-62
2021/01/15 03:38:37;;;;;;;12.67;9.30;;;3.00;99.90;;;-0.40;100.00;100748.66;4995280;27;100020;-63
2021/01/15 03:41:03;;;;;;;16.63;10.43;;;2.00;99.90;;;-0.41;100.00;100753.97;5023983;27;100943;-62
2021/01/15 03:43:30;;;;;;;15.07;10.50;;;2.10;99.90;;;-0.40;100.00;100756.53;5025830;27;100500;-63
2021/01/15 03:45:57;;;;;;;14.43;9.33;;;2.00;99.90;;;-0.39;100.00;100760.03;5025305;27;100497;-63
2021/01/15 03:48:24;;;;;;;16.40;10.30;;;2.10;99.90;;;-0.34;100.00;100749.25;5026147;27;99991;-62
2021/01/15 03:50:51;;;;;;;14.43;10.57;;;2.00;99.90;;;-0.39;100.00;100752.13;5025958;27;100798;-63
2021/01/15 03:53:18;;;;;;;12.87;9.80;;;2.10;99.90;;;-0.40;100.00;100748.66;5025596;27;101200;-62
2021/01/15 03:55:46;;;;;;;12.53;9.27;;;2.00;99.90;;;-0.34;100.00;100751.88;5025385;27;100359;-63
2021/01/15 03:58:12;;;;;;;13.43;9.50;;;2.00;99.90;;;-0.37;100.00;100758.13;5026346;27;100310;-62
2021/01/15 04:00:39;;;;;;;12.57;8.70;;;2.00;99.90;;;-0.37;100.00;100748.47;5025067;27;101205;-63
2021/01/15 04:03:06;;;;;;;11.63;8.83;;;2.00;99.90;;;-0.32;100.00;100750.88;5025891;27;101164;-63
2021/01/15 04:05:33;;;;;;;13.10;8.33;;;2.10;99.90;;;-0.31;100.00;100759.63;5025919;27;99997;-63
2021/01/15 04:08:00;;;;;;;10.33;7.67;;;2.10;99.90;;;-0.30;100.00;100753.44;5026437;27;99984;-63
2021/01/15 04:10:26;;;;;;;12.77;7.77;;;2.20;99.90;;;-0.30;100.00;100756.91;5024688;27;101152;-61
2021/01/15 04:12:53;;;;;;;10.10;7.67;;;0.80;99.90;;;-0.28;100.00;100752.44;5024513;27;101460;-61
2021/01/15 04:15:20;;;;;;;10.47;7.53;;;2.20;99.90;;;-0.28;100.00;100749.81;5025419;27;100190;-63
2021/01/15 04:17:46;;;;;;;11.30;7.67;;;2.00;99.90;;;-0.28;100.00;100744.53;5025115;27;100112;-62
2021/01/15 04:20:15;;;;;;;11.13;7.53;;;2.10;99.90;;;-0.30;100.00;100761.31;5024931;27;101297;-62
2021/01/15 04:22:45;;;;;;;11.60;7.07;;;2.20;99.90;;;-0.29;100.00;100752.50;5024949;27;100688;-64
2021/01/15 04:25:13;;;;;;;8.63;6.80;;;2.20;99.90;;;-0.28;100.00;100751.59;5024351;27;100996;-61
2021/01/15 04:27:41;;;;;;;10.73;7.27;;;2.00;99.90;;;-0.28;100.00;100749.81;5025827;27;100024;-62
2021/01/15 04:30:12;;;;;;;8.83;6.50;;;2.20;99.90;;;-0.29;100.00;100745.47;5024636;27;100634;-62
2021/01/15 04:32:44;;;;;;;7.40;6.17;;;2.10;99.90;;;-0.23;100.00;100754.81;5024718;27;100547;-63
2021/01/15 04:35:12;;;;;;;9.17;6.10;;;2.10;99.90;;;-0.30;100.00;100756.91;5024285;27;100153;-64
2021/01/15 04:37:39;;;;;;;12.77;8.10;;;2.10;99.90;;;-0.32;100.00;100758.78;5024408;27;100034;-63
2021/01/15 04:40:07;;;;;;;10.60;6.90;;;2.10;99.90;;;-0.32;100.00;100753.50;5024014;27;101316;-62
2021/01/15 04:42:35;;;;;;;9.60;6.93;;;1.90;99.90;;;-0.29;100.00;100760.41;5024570;27;100438;-62
2021/01/15 04:45:02;;;;;;;9.43;6.73;;;1.90;99.90;;;-0.34;100.00;100760.63;5024895;27;100367;-62
2021/01/15 04:47:31;;;;;;;8.57;6.03;;;1.90;99.90;;;-0.36;100.00;100759.84;5025055;27;100449;-62
2021/01/15 04:49:58;;;;;;;7.67;6.23;;;1.80;99.90;;;-0.37;100.00;100760.75;5024467;27;101041;-63
2021/01/15 04:52:25;;;;;;;9.50;7.20;;;1.90;99.90;;;-0.37;100.00;100763.41;5024213;27;101153;-62
2021/01/15 04:54:57;;;;;;;11.90;6.13;;;2.00;99.90;;;-0.35;100.00;100766.81;5024855;27;100257;-59
2021/01/15 04:57:26;;;;;;;9.03;6.20;;;1.90;99.90;;;-0.36;100.00;100775.63;5024363;27;100030;-64
2021/01/15 04:59:55;;;;;;;7.53;5.97;;;1.90;99.90;;;-0.38;100.00;100774.88;5023598;27;100880;-63
2021/01/15 05:02:21;;;;;;;9.87;6.87;;;1.90;99.90;;;-0.36;100.00;100773.00;5024481;27;100293;-62
2021/01/15 05:04:49;;;;;;;7.47;6.03;;;1.90;99.90;;;-0.35;100.00;100774.69;5025232;27;100129;-61
2021/01/15 05:07:15;;;;;;;8.73;6.07;;;1.70;99.90;;;-0.34;100.00;100773.75;5024745;27;100305;-63
2021/01/15 05:09:43;;;;;;;9.10;6.73;;;2.00;99.90;;;-0.33;100.00;100774.63;5023539;27;101193;-62
2021/01/15 05:12:12;;;;;;;8.30;5.87;;;1.90;99.90;;;-0.36;100.00;100773.84;5024307;27;100816;-63
2021/01/15 05:14:42;;;;;;;8.73;5.43;;;1.90;99.90;;;-0.35;100.00;100777.31;5024350;27;100225;-63
2021/01/15 05:17:10;;;;;;;7.17;5.27;;;2.00;99.90;;;-0.34;100.00;100776.41;5027113;27;100075;-62
2021/01/15 05:19:40;;;;;;;7.80;6.33;;;1.90;99.90;;;-0.31;100.00;100775.41;5027881;27;101619;-62
2021/01/15 05:22:08;;;;;;;9.40;6.50;;;1.80;99.90;;;-0.31;100.00;100778.88;5027734;27;100971;-64
2021/01/15 05:24:35;;;;;;;8.87;6.10;;;1.90;99.90;;;-0.31;100.00;100783.28;5027834;27;100072;-62
2021/01/15 05:27:38;;;;;;;8.37;5.77;;;2.00;99.90;;;-0.32;100.00;100786.84;5027895;27;100132;-62
2021/01/15 05:30:17;;;;;;;8.87;7.20;;;2.00;99.90;;;-0.28;100.00;100793.66;5027164;27;101010;-62
2021/01/15 05:32:44;;;;;;;7.30;5.60;;;2.00;99.90;;;-0.30;100.00;100796.38;5028025;27;100344;-63
2021/01/15 05:35:12;;;;;;;9.73;5.23;;;2.00;99.90;;;-0.33;100.00;100793.03;5027959;27;100480;-62
2021/01/15 05:37:39;;;;;;;7.83;5.03;;;1.90;99.90;;;-0.30;100.00;100792.88;5027775;27;99927;-62
2021/01/15 05:40:08;;;;;;;7.43;5.30;;;1.90;99.90;;;-0.29;100.00;100797.22;5026568;27;101360;-63
2021/01/15 05:42:46;;;;;;;8.90;5.70;;;1.90;99.90;;;-0.31;100.00;100799.06;5027815;27;101020;-63
2021/01/15 05:45:15;;;;;;;6.73;5.23;;;1.90;99.90;;;-0.31;100.00;100801.69;5027597;27;100107;-63
2021/01/15 05:47:45;;;;;;;9.03;5.50;;;1.70;99.90;;;-0.30;100.00;100798.13;5027660;27;100357;-62
2021/01/15 05:50:12;;;;;;;5.70;5.03;;;1.80;99.90;;;-0.33;100.00;100801.75;5026906;27;101949;-61
2021/01/15 05:52:54;;;;;;;7.50;6.03;;;1.90;99.90;;;-0.32;100.00;100806.09;5028010;27;100711;-63
2021/01/15 05:55:23;;;;;;;7.93;5.37;;;1.80;99.90;;;-0.31;100.00;100809.59;5027851;27;100181;-63
2021/01/15 05:57:50;;;;;;;8.47;5.57;;;1.90;99.90;;;-0.33;100.00;100806.16;5028242;27;100201;-62
2021/01/15 06:00:34;;;;;;;7.40;5.27;;;1.90;99.90;;;-0.32;100.00;100808.72;5026434;27;100900;-62
2021/01/15 06:03:06;;;;;;;7.30;5.50;;;2.00;99.90;;;-0.32;100.00;100810.50;5027121;27;100874;-63
2021/01/15 06:05:34;;;;;;;8.20;5.47;;;2.00;99.90;;;-0.34;100.00;100813.22;5027134;27;100178;-63
2021/01/15 06:08:02;;;;;;;7.60;5.23;;;2.40;99.90;;;-0.33;100.00;100812.28;5028656;27;100055;-61
2021/01/15 06:10:41;;;;;;;8.03;5.03;;;1.90;99.90;;;-0.28;100.00;100817.31;5026886;27;100729;-61
2021/01/15 06:13:08;;;;;;;7.47;5.60;;;1.90;99.90;;;-0.33;100.00;100821.94;5026938;27;101054;-62
2021/01/15 06:15:46;;;;;;;7.27;5.87;;;1.90;99.90;;;-0.30;100.00;100817.41;5027153;27;99995;-62
2021/01/15 06:18:17;;;;;;;8.63;6.43;;;1.90;99.90;;;-0.33;100.00;100816.69;5027217;27;100237;-62
2021/01/15 06:20:47;;;;;;;8.07;5.90;;;2.00;99.90;;;-0.30;100.00;100827.06;5027463;27;100899;-63
2021/01/15 06:23:15;;;;;;;8.00;6.30;;;2.00;99.90;;;-0.31;100.00;100828.84;5026496;27;100501;-62
2021/01/15 06:25:59;;;;;;;8.90;6.10;;;2.00;99.90;;;-0.32;100.00;100837.66;5027029;27;100374;-63
2021/01/15 06:28:34;;;;;;;9.07;6.10;;;1.90;99.90;;;-0.39;100.00;100836.25;5027868;27;100335;-64
2021/01/15 06:31:05;;;;;;;8.67;5.97;;;2.00;99.90;;;-0.39;100.00;100844.16;5026809;27;100172;-63
2021/01/15 06:33:32;;;;;;;9.47;6.50;;;2.10;99.90;;;-0.38;100.00;100843.22;5027670;27;101036;-64
2021/01/15 06:35:58;;;;;;;11.20;6.93;;;2.00;99.90;;;-0.42;100.00;100846.94;5027015;27;100531;-63
2021/01/15 06:38:30;;;;;;;12.67;7.47;;;2.00;99.90;;;-0.37;100.00;100847.53;5027940;27;100094;-62
2021/01/15 06:40:58;;;;;;;9.97;6.60;;;2.10;99.90;;;-0.43;100.00;100846.06;5025505;27;101163;-61
2021/01/15 06:43:27;;;;;;;10.00;6.73;;;2.00;99.90;;;-0.39;100.00;100847.63;5027015;27;100568;-61
2021/01/15 06:45:56;;;;;;;11.60;7.13;;;1.90;99.90;;;-0.46;100.00;100850.63;5026529;27;99928;-62
2021/01/15 06:48:25;;;;;;;9.30;6.13;;;2.10;99.90;;;-0.46;100.00;100855.88;5025714;27;100314;-63
2021/01/15 06:50:54;;;;;;;6.77;5.00;;;1.90;99.90;;;-0.47;100.00;100857.66;5025915;27;101102;-62
2021/01/15 06:53:24;;;;;;;6.60;5.27;;;1.80;99.90;;;-0.44;100.00;100862.78;5026263;27;100861;-62
2021/01/15 06:55:53;;;;;;;7.37;5.03;;;1.80;99.90;;;-0.45;100.00;100863.69;5026221;27;99993;-62
2021/01/15 06:58:26;;;;;;;6.20;4.90;;;1.90;99.90;;;-0.46;100.00;100863.75;5027261;27;100262;-62
2021/01/15 07:01:19;;;;;;;6.60;5.00;;;0.80;99.90;;;-0.46;100.00;100869.03;5026677;27;100910;-62
2021/01/15 07:04:26;;;;;;;5.30;4.77;;;1.90;99.90;;;-0.48;100.00;100874.34;5026763;27;100293;-61
2021/01/15 07:07:12;;;;;;;7.83;5.47;;;1.90;99.90;;;-0.45;100.00;100876.00;5026204;27;100322;-65
2021/01/15 07:09:41;;;;;;;7.20;4.70;;;1.80;99.90;;;-0.50;100.00;100880.63;5025813;27;100239;-63
2021/01/15 07:12:12;;;;;;;7.30;5.50;;;1.80;99.90;;;-0.43;100.00;100885.50;5026299;27;100984;-63
2021/01/15 07:14:51;;;;;;;5.73;4.83;;;2.00;99.90;;;-0.48;100.00;100884.00;5031967;27;100457;-64
2021/01/15 07:17:35;;;;;;;7.20;5.57;;;1.90;99.90;;;-0.48;100.00;100897.16;5029480;27;100109;-64
2021/01/15 07:20:10;;;;;;;8.60;6.43;;;1.80;99.90;;;-0.50;100.00;100892.00;5026476;27;100307;-64
2021/01/15 07:22:43;;;;;;;7.07;5.57;;;1.90;99.90;;;-0.54;100.00;100890.44;5026223;27;100029;-64
2021/01/15 07:25:12;;;;;;;7.47;5.43;;;1.90;99.90;;;-0.55;100.00;100891.34;5007160;27;103352;-64
2021/01/15 07:27:40;;;;;;;6.93;4.93;;;1.90;99.90;;;-0.59;100.00;100892.41;5026976;27;100303;-64
2021/01/15 07:30:13;;;;;;;6.17;4.70;;;2.10;99.90;;;-0.60;100.00;100898.59;5026416;27;100171;-64
2021/01/15 07:32:40;;;;;;;7.07;5.27;;;1.90;99.90;;;-0.62;100.00;100902.25;5005856;27;101594;-62
2021/01/15 07:35:15;;;;;;;7.83;6.00;;;1.80;99.90;;;-0.60;100.00;100908.25;5025452;27;100915;-62
2021/01/15 07:37:42;;;;;;;8.23;5.60;;;1.70;99.90;;;-0.61;100.00;100911.81;5025797;27;100073;-62
2021/01/15 07:40:16;;;;;;;6.93;5.43;;;1.70;99.90;;;-0.64;100.00;100911.97;5024344;27;100128;-62
2021/01/15 07:42:52;;;;;;;7.40;5.50;;;1.80;99.90;;;-0.59;100.00;100910.81;5005089;27;101686;-62
2021/01/15 07:45:57;;;;;;;8.00;5.03;;;1.80;99.90;;;-0.65;100.00;100913.75;5004576;27;100950;-65
2021/01/15 07:48:23;;;;;;;9.13;6.00;;;1.90;99.90;;;-0.68;100.00;100916.50;5023185;27;100208;-62
2021/01/15 07:50:51;;;;;;;6.20;4.90;;;1.70;99.90;;;-0.69;100.00;100916.56;5025741;27;100159;-64
2021/01/15 07:53:43;;;;;;;7.03;5.03;;;1.70;99.90;;;-0.67;100.00;100915.59;5025503;27;100705;-62
2021/01/15 07:56:10;;;;;;;7.60;5.73;;;1.70;99.90;;;-0.79;100.00;100924.03;5025180;27;100579;-62
2021/01/15 07:58:48;;;;;;;8.37;6.07;;;1.70;99.90;;;-0.76;100.00;100926.53;5024785;27;100256;-62
2021/01/15 08:01:17;;;;;;;7.23;5.70;;;1.60;99.90;;;-0.75;100.00;100917.72;5025142;27;100368;-62
2021/01/15 08:03:46;;;;;;;8.87;6.43;;;1.70;99.90;;;-0.87;100.00;100928.81;5025070;27;100904;-63
2021/01/15 08:06:15;;;;;;;8.77;6.37;;;1.70;99.90;;;-0.84;100.00;100932.13;5024876;27;100379;-65
2021/01/15 08:08:58;;;;;;;9.33;6.30;;;1.80;99.90;;;-0.79;100.00;100929.28;5025022;27;100076;-64
2021/01/15 08:11:25;;;;;;;10.50;6.17;;;1.70;99.90;;;-0.74;100.00;100938.66;5023021;27;100490;-64
2021/01/15 08:14:14;;;;;;;11.90;7.07;;;1.60;99.90;;;-0.74;100.00;100938.66;5026690;27;100940;-64
2021/01/15 08:16:42;;;;;;;8.70;6.60;;;1.70;99.90;;;-0.76;100.00;100932.66;5024714;27;101254;-64
2021/01/15 08:19:10;;;;;;;15.73;8.20;;;1.60;99.90;;;-0.79;100.00;100940.66;5025122;27;100091;-63
2021/01/15 08:21:38;;;;;;;10.07;7.30;;;1.50;99.90;;;-0.82;100.00;100937.31;5025339;27;101456;-63
2021/01/15 08:24:05;;;;;;;14.17;8.40;;;1.50;99.90;;;-0.78;100.00;100934.47;5024108;27;101051;-64
2021/01/15 08:26:50;;;;;;;13.47;8.70;;;1.70;99.90;;;-0.74;100.00;100936.03;5024516;27;100287;-63
2021/01/15 08:29:18;;;;;;;11.00;8.90;;;1.60;99.90;;;-0.75;100.00;100944.00;5025202;27;100235;-62
2021/01/15 08:31:46;;;;;;;12.03;9.33;;;1.50;99.90;;;-0.73;100.00;100943.00;5024495;27;100432;-63
2021/01/15 08:34:15;;;;;;;13.57;9.63;;;1.60;99.90;;;-0.73;100.00;100939.50;5025091;27;100750;-63
2021/01/15 08:36:45;;;;;;;13.87;10.57;;;1.60;99.90;;;-0.69;100.00;100948.13;5024281;27;100305;-64
2021/01/15 08:39:12;;;;;;;13.73;10.23;;;1.60;99.90;;;-0.74;100.00;100943.91;5024595;27;100320;-65
2021/01/15 08:41:40;;;;;;;14.93;10.80;;;1.60;99.90;;;-0.77;100.00;100951.97;5025094;27;100042;-65
2021/01/15 08:44:08;;;;;;;14.47;10.37;;;1.70;99.90;;;-0.75;100.00;100952.75;5024139;27;101505;-64
2021/01/15 08:46:38;;;;;;;14.33;10.63;;;1.60;99.90;;;-0.73;100.00;100945.63;5023994;27;101270;-64
2021/01/15 08:49:08;;;;;;;15.03;10.90;;;1.60;99.90;;;-0.71;100.00;100945.56;5024299;27;100390;-65
2021/01/15 08:51:36;;;;;;;17.43;11.87;;;1.60;99.90;;;-0.66;100.00;100945.34;5025814;27;99947;-66
2021/01/15 08:54:07;;;;;;;15.13;10.83;;;1.70;99.90;;;-0.62;100.00;100947.78;5027794;27;100371;-63
2021/01/15 08:56:39;;;;;;;17.83;11.27;;;1.70;99.90;;;-0.68;100.00;100950.69;5028197;27;101320;-65
2021/01/15 08:59:08;;;;;;;14.50;10.70;;;1.60;99.90;;;-0.77;100.00;100948.47;5027692;27;100292;-65
2021/01/15 09:01:38;;;;;;;12.17;8.27;;;1.70;99.90;;;-0.84;100.00;100950.50;5027500;27;100106;-65
2021/01/15 09:04:07;;;;;;;9.97;7.53;;;1.70;99.90;;;-0.88;100.00;100954.22;5027412;27;100906;-66
2021/01/15 09:06:34;;;;;;;11.97;7.70;;;1.70;99.90;;;-0.95;100.00;100952.78;5028778;27;100684;-65
2021/01/15 09:09:04;;;;;;;9.33;6.40;;;1.60;99.90;;;-1.03;100.00;100960.16;5027764;27;100263;-66
2021/01/15 09:11:34;;;;;;;7.80;6.53;;;1.60;99.90;;;-1.04;100.00;100963.72;5027952;27;100073;-67
2021/01/15 09:14:01;;;;;;;9.97;7.73;;;1.40;99.90;;;-1.06;100.00;100962.91;5027105;27;100848;-66
2021/01/15 09:16:29;;;;;;;8.47;6.60;;;1.40;99.90;;;-1.02;100.00;100964.50;5008018;27;101331;-67
2021/01/15 09:19:05;;;;;;;10.13;7.10;;;2.10;99.90;;;-0.97;100.00;100966.91;5027578;27;99954;-66
2021/01/15 09:21:31;;;;;;;10.13;7.50;;;1.30;99.90;;;-0.93;100.00;100974.59;5028284;27;100138;-65
2021/01/15 09:23:57;;;;;;;8.60;7.03;;;1.40;99.90;;;-0.91;100.00;100969.25;5026757;27;100771;-66
2021/01/15 09:26:24;;;;;;;9.60;7.20;;;1.40;99.90;;;-0.90;100.00;100974.47;5027716;27;100270;-66
2021/01/15 09:28:50;;;;;;;10.73;8.37;;;1.40;99.90;;;-0.89;100.00;100970.91;5027791;27;100414;-67
2021/01/15 09:31:18;;;;;;;9.67;7.90;;;1.50;99.90;;;-0.85;100.00;100974.22;5028304;27;100483;-65
2021/01/15 09:33:47;;;;;;;12.57;8.40;;;1.60;99.90;;;-0.84;100.00;100979.41;5027389;27;100982;-66
2021/01/15 09:36:26;;;;;;;12.57;9.63;;;1.50;99.90;;;-0.78;100.00;100979.16;5027303;27;100817;-66
2021/01/15 09:38:54;;;;;;;14.13;9.73;;;1.50;99.90;;;-0.78;100.00;100983.56;5027069;27;100213;-65
2021/01/15 09:41:20;;;;;;;15.80;10.03;;;1.50;99.90;;;-0.79;100.00;100973.97;5027958;27;100122;-66
2021/01/15 09:43:47;;;;;;;15.93;10.17;;;1.80;99.90;;;-0.74;100.00;100975.44;5027148;27;101206;-65
2021/01/15 09:46:26;;;;;;;17.27;9.33;;;1.60;99.90;;;-0.74;100.00;100985.97;5028250;27;100855;-65
2021/01/15 09:48:54;;;;;;;17.03;11.70;;;1.60;99.90;;;-0.74;100.00;100987.72;5027332;27;100019;-66
2021/01/15 09:51:27;;;;;;;13.70;10.13;;;1.70;99.90;;;-0.78;100.00;100986.19;5028885;27;100295;-66
2021/01/15 09:53:57;;;;;;;14.30;9.73;;;1.70;99.90;;;-0.78;100.00;100991.44;5026215;27;101800;-66
2021/01/15 09:56:29;;;;;;;16.67;10.17;;;1.60;99.90;;;-0.79;100.00;100995.84;5027148;27;100466;-66
2021/01/15 09:58:56;;;;;;;15.23;10.07;;;1.70;99.90;;;-0.83;100.00;100990.78;5027504;27;100343;-67
2021/01/15 10:01:25;;;;;;;17.33;12.90;;;1.60;99.90;;;-0.83;100.00;100999.53;5027387;27;100044;-66
2021/01/15 10:03:51;;;;;;;15.17;10.57;;;1.70;99.90;;;-0.87;100.00;101003.22;5025602;27;100715;-66
2021/01/15 10:06:19;;;;;;;15.43;10.67;;;1.60;99.90;;;-0.86;100.00;101006.69;5026556;27;100448;-66
2021/01/15 10:08:47;;;;;;;13.80;10.60;;;1.70;99.90;;;-0.93;100.00;100994.75;5027626;27;100035;-66
2021/01/15 10:11:27;;;;;;;15.83;11.23;;;1.60;99.90;;;-0.95;100.00;100997.44;5008406;27;100366;-67
2021/01/15 10:13:55;;;;;;;15.60;10.33;;;1.60;99.90;;;-0.99;100.00;100998.47;5027278;27;101186;-67